Time;durP1;ratioP1;P1;durP2;ratioP2;P2;SDS_P1;SDS_P2;PMS_P1;PMS_P2;Temp;Humidity;BMP_temperature;BMP_pressure;BME280_temperature;BME280_humidity;BME280_pressure;Samples;Min_cycle;Max_cycle;Signal;HPM_P1;HPM_P2
2021/12/19 00:00:55;;;;;;;11.75;4.65;;;7.10;99.90;;;;;;5075780;28;20040;-82
2021/12/19 00:08:49;;;;;;;6.32;2.88;;;7.10;99.90;;;;;;5075825;28;20194;-82
2021/12/19 00:11:29;;;;;;;7.10;3.70;;;7.10;99.90;;;;;;5076575;28;20048;-82
2021/12/19 00:13:56;;;;;;;6.40;3.33;;;7.10;99.90;;;;;;5075834;28;20052;-82
2021/12/19 00:16:22;;;;;;;7.82;3.70;;;7.10;99.90;;;;;;5075641;28;20047;-82
2021/12/19 00:18:50;;;;;;;7.07;4.03;;;7.10;99.90;;;;;;5061473;28;20067;-82
2021/12/19 00:21:17;;;;;;;8.18;3.28;;;7.10;99.90;;;;;;5077821;28;20055;-82
2021/12/19 00:23:45;;;;;;;5.78;3.08;;;7.10;99.90;;;;;;5075962;28;20125;-82
2021/12/19 00:26:11;;;;;;;5.90;3.38;;;7.10;99.90;;;;;;5059871;28;20040;-82
2021/12/19 00:28:37;;;;;;;7.47;3.65;;;7.20;99.90;;;;;;5076709;28;20105;-82
2021/12/19 00:31:04;;;;;;;6.63;3.67;;;7.10;99.90;;;;;;5077842;28;20045;-82
2021/12/19 00:33:30;;;;;;;9.25;3.80;;;7.10;99.90;;;;;;5077651;28;20041;-82
2021/12/19 00:35:56;;;;;;;5.95;3.33;;;7.20;99.90;;;;;;5077310;28;20051;-82
2021/12/19 00:38:22;;;;;;;5.53;3.03;;;7.10;99.90;;;;;;5076383;28;20488;-82
2021/12/19 00:40:48;;;;;;;7.82;3.42;;;7.10;99.90;;;;;;5077421;28;20047;-81
2021/12/19 00:43:24;;;;;;;7.97;4.00;;;7.20;99.90;;;;;;5059489;28;20072;-82
2021/12/19 00:45:52;;;;;;;7.88;3.67;;;7.20;99.90;;;;;;5075925;28;20048;-82
2021/12/19 00:48:17;;;;;;;8.07;3.67;;;7.20;99.90;;;;;;5075685;28;20044;-82
2021/12/19 00:50:44;;;;;;;7.32;3.53;;;7.20;99.90;;;;;;5076018;28;20132;-82
2021/12/19 00:53:10;;;;;;;9.13;3.00;;;7.10;99.90;;;;;;5077361;28;20053;-82
2021/12/19 00:55:36;;;;;;;9.30;3.13;;;7.00;99.90;;;;;;5075221;28;20123;-82
2021/12/19 00:58:03;;;;;;;9.32;3.63;;;7.20;99.90;;;;;;5075433;28;20044;-82
2021/12/19 01:00:32;;;;;;;6.43;3.05;;;7.20;99.90;;;;;;5057861;28;20036;-82
2021/12/19 01:02:59;;;;;;;9.82;3.58;;;7.20;99.90;;;;;;5059225;28;20040;-82
2021/12/19 01:05:27;;;;;;;8.40;3.63;;;7.20;99.90;;;;;;5059468;28;20101;-82
2021/12/19 01:07:53;;;;;;;6.50;3.08;;;7.20;99.90;;;;;;5077139;28;20067;-82
2021/12/19 01:10:18;;;;;;;11.40;3.67;;;7.20;99.90;;;;;;5076263;28;20467;-82
2021/12/19 01:12:44;;;;;;;7.05;3.30;;;7.20;99.90;;;;;;5076419;28;20040;-82
2021/12/19 01:15:14;;;;;;;9.77;3.72;;;7.20;99.90;;;;;;5059380;28;20041;-82
2021/12/19 01:17:41;;;;;;;8.48;3.30;;;7.20;99.90;;;;;;5077284;28;20403;-82
2021/12/19 01:20:20;;;;;;;9.35;3.55;;;7.20;99.90;;;;;;5075709;28;20036;-82
2021/12/19 01:22:46;;;;;;;8.15;3.20;;;7.20;99.90;;;;;;5059637;28;20045;-82
2021/12/19 01:25:13;;;;;;;8.20;3.30;;;7.20;99.90;;;;;;5075400;28;20076;-82
2021/12/19 01:27:38;;;;;;;6.60;3.38;;;7.20;99.90;;;;;;5072283;28;20044;-82
2021/12/19 01:30:06;;;;;;;8.65;3.47;;;7.20;99.90;;;;;;5055890;28;20113;-81
2021/12/19 01:32:31;;;;;;;6.50;3.30;;;7.20;99.90;;;;;;5072815;28;20044;-82
2021/12/19 01:34:57;;;;;;;7.35;3.20;;;7.20;99.90;;;;;;5071844;28;20508;-82
2021/12/19 01:37:23;;;;;;;5.78;2.85;;;7.30;99.90;;;;;;5071530;28;20068;-82
2021/12/19 01:39:48;;;;;;;6.55;2.53;;;7.30;99.90;;;;;;5072302;28;20037;-82
2021/12/19 01:42:17;;;;;;;11.00;2.95;;;7.20;99.90;;;;;;5072831;28;20052;-82
2021/12/19 01:44:44;;;;;;;4.68;2.28;;;7.20;99.90;;;;;;5071505;28;20055;-82
2021/12/19 01:47:10;;;;;;;8.52;3.00;;;7.20;99.90;;;;;;5071939;28;20052;-82
2021/12/19 01:49:36;;;;;;;7.25;2.58;;;7.20;99.90;;;;;;5072115;28;20407;-82
2021/12/19 01:52:02;;;;;;;8.50;3.47;;;7.20;99.90;;;;;;5073827;28;20039;-82
2021/12/19 01:54:27;;;;;;;6.07;2.75;;;7.20;99.90;;;;;;5072496;28;20044;-82
2021/12/19 01:56:53;;;;;;;5.00;2.80;;;7.20;99.90;;;;;;5056562;28;20046;-82
2021/12/19 01:59:19;;;;;;;5.88;2.67;;;7.20;99.90;;;;;;5075101;28;20047;-82
2021/12/19 02:01:48;;;;;;;6.65;2.92;;;7.20;99.90;;;;;;5074927;28;20097;-82
2021/12/19 02:04:18;;;;;;;4.60;2.10;;;7.30;99.90;;;;;;5074655;28;20044;-82
2021/12/19 02:06:44;;;;;;;3.85;1.80;;;7.30;99.90;;;;;;5075361;28;20040;-82
2021/12/19 02:09:10;;;;;;;5.40;2.15;;;7.20;99.90;;;;;;5057987;28;20137;-82
2021/12/19 02:11:38;;;;;;;4.70;2.17;;;7.20;99.90;;;;;;5073223;28;20619;-82
2021/12/19 02:14:05;;;;;;;4.22;1.95;;;7.20;99.90;;;;;;5071900;28;20041;-82
2021/12/19 02:16:31;;;;;;;6.00;2.97;;;7.20;99.90;;;;;;5073318;28;20052;-82
2021/12/19 02:18:59;;;;;;;4.25;1.70;;;7.20;99.90;;;;;;5056731;28;20053;-82
2021/12/19 02:21:25;;;;;;;2.22;1.20;;;7.20;99.90;;;;;;5073917;28;20072;-82
2021/12/19 02:23:51;;;;;;;4.15;1.35;;;7.20;99.90;;;;;;5074885;28;20051;-82
2021/12/19 02:26:17;;;;;;;4.00;1.70;;;7.20;99.90;;;;;;5057615;28;20044;-82
2021/12/19 02:28:43;;;;;;;4.90;2.20;;;7.20;99.90;;;;;;5074774;28;20048;-81
2021/12/19 02:31:09;;;;;;;3.72;1.55;;;7.20;99.90;;;;;;5077147;28;20105;-82
2021/12/19 02:33:39;;;;;;;3.63;1.45;;;7.10;99.90;;;;;;5076481;28;20029;-82
2021/12/19 02:36:22;;;;;;;5.78;2.55;;;7.10;99.90;;;;;;5057372;28;20036;-82
2021/12/19 02:49:44;;;;;;;2.60;1.30;;;7.10;99.90;;;;;;5075148;28;20075;-82
2021/12/19 02:52:13;;;;;;;4.80;1.60;;;7.10;99.90;;;;;;5057787;28;20493;-82
2021/12/19 02:54:38;;;;;;;4.45;2.75;;;7.10;99.90;;;;;;5058431;28;20044;-82
2021/12/19 02:57:05;;;;;;;1.73;0.95;;;7.10;99.90;;;;;;5075311;28;20041;-82
2021/12/19 02:59:32;;;;;;;3.20;1.38;;;7.10;99.90;;;;;;5077374;28;20039;-82
2021/12/19 03:01:57;;;;;;;2.50;0.95;;;7.10;99.90;;;;;;5077919;28;20404;-82
2021/12/19 03:04:23;;;;;;;5.05;1.40;;;7.00;99.90;;;;;;5059397;28;20041;-82
2021/12/19 03:06:48;;;;;;;1.73;1.00;;;7.10;99.90;;;;;;5059455;28;20132;-79
2021/12/19 03:09:27;;;;;;;2.30;1.17;;;7.00;99.90;;;;;;5072965;28;20041;-79
2021/12/19 03:12:06;;;;;;;2.10;0.85;;;7.00;99.90;;;;;;5056031;28;20096;-79
2021/12/19 03:20:14;;;;;;;2.20;1.25;;;7.00;99.90;;;;;;5038845;28;20404;-79
2021/12/19 03:22:39;;;;;;;3.58;1.40;;;7.00;99.90;;;;;;5072206;28;20037;-79
2021/12/19 03:25:05;;;;;;;2.25;1.30;;;7.00;99.90;;;;;;5072118;28;20485;-79
2021/12/19 03:27:31;;;;;;;1.27;0.85;;;7.00;99.90;;;;;;5056327;28;20047;-79
2021/12/19 03:29:56;;;;;;;2.88;1.17;;;6.90;99.90;;;;;;5072322;28;20044;-79
2021/12/19 03:32:24;;;;;;;2.17;1.08;;;6.90;99.90;;;;;;5055854;28;20095;-78
2021/12/19 03:34:50;;;;;;;2.28;1.02;;;6.90;99.90;;;;;;5055864;28;20029;-79
2021/12/19 03:37:15;;;;;;;1.73;1.00;;;6.90;99.90;;;;;;5056184;28;20520;-79
2021/12/19 03:40:07;;;;;;;1.83;1.02;;;6.90;99.90;;;;;;5076361;28;20036;-79
2021/12/19 03:42:33;;;;;;;2.17;0.80;;;7.00;99.90;;;;;;5075540;28;20053;-79
2021/12/19 03:44:59;;;;;;;2.95;0.80;;;6.90;99.90;;;;;;5076218;28;20279;-79
2021/12/19 03:47:25;;;;;;;1.40;0.63;;;6.90;99.90;;;;;;5059046;28;20222;-79
2021/12/19 03:49:51;;;;;;;1.75;0.57;;;6.90;99.90;;;;;;5074342;28;20043;-77
2021/12/19 03:52:16;;;;;;;1.40;0.75;;;6.80;99.90;;;;;;5073410;28;20484;-78
2021/12/19 03:54:43;;;;;;;1.58;0.70;;;6.90;99.90;;;;;;5073512;28;20067;-78
2021/12/19 03:57:09;;;;;;;2.90;0.70;;;6.80;99.90;;;;;;5056412;28;20412;-78
2021/12/19 03:59:34;;;;;;;2.05;0.68;;;6.80;99.90;;;;;;5072975;28;20032;-78
2021/12/19 04:02:00;;;;;;;3.38;0.75;;;6.80;99.90;;;;;;5072981;28;20106;-79
2021/12/19 04:04:25;;;;;;;2.28;0.95;;;6.80;99.90;;;;;;5074437;28;20467;-78
2021/12/19 04:06:51;;;;;;;1.38;0.70;;;6.70;99.90;;;;;;5072836;28;20112;-78
2021/12/19 04:09:17;;;;;;;2.67;0.90;;;6.80;99.90;;;;;;5074363;28;20401;-78
2021/12/19 04:11:42;;;;;;;4.00;0.75;;;6.70;99.90;;;;;;5073949;28;20102;-78
2021/12/19 04:14:08;;;;;;;3.33;1.05;;;6.60;99.90;;;;;;5072967;28;20040;-77
2021/12/19 04:16:33;;;;;;;1.65;0.80;;;6.70;99.90;;;;;;5073657;28;20656;-77
2021/12/19 04:18:59;;;;;;;1.30;0.80;;;6.70;99.90;;;;;;5072958;28;20471;-78
2021/12/19 04:21:24;;;;;;;2.08;1.17;;;6.60;99.90;;;;;;5056208;28;20051;-78
2021/12/19 04:23:50;;;;;;;1.50;1.00;;;6.70;99.90;;;;;;5072855;28;20123;-78
2021/12/19 04:26:15;;;;;;;2.97;1.13;;;6.70;99.90;;;;;;5073515;28;20040;-77
2021/12/19 04:28:42;;;;;;;2.75;1.30;;;6.70;99.90;;;;;;5072599;28;20051;-78
2021/12/19 04:31:09;;;;;;;1.88;1.02;;;6.70;99.90;;;;;;5072325;28;20044;-77
2021/12/19 04:33:37;;;;;;;2.22;1.10;;;6.80;99.90;;;;;;5055918;28;20047;-77
2021/12/19 04:36:05;;;;;;;2.97;1.33;;;6.70;99.90;;;;;;5073243;28;20409;-79
2021/12/19 04:41:58;;;;;;;3.72;1.67;;;6.70;99.90;;;;;;5073448;28;20448;-78
2021/12/19 05:02:09;;;;;;;0.83;0.40;;;6.60;99.90;;;;;;5072237;28;20093;-78
2021/12/19 05:15:23;;;;;;;3.00;0.55;;;6.60;99.90;;;;;;5071533;28;20665;-77
2021/12/19 05:17:48;;;;;;;0.20;0.20;;;6.60;99.90;;;;;;5071487;28;20048;-77
2021/12/19 05:20:19;;;;;;;2.17;0.50;;;6.50;99.90;;;;;;5071421;28;20408;-77
2021/12/19 05:22:49;;;;;;;1.50;0.40;;;6.50;99.90;;;;;;5071730;28;20048;-77
2021/12/19 05:25:18;;;;;;;1.85;0.50;;;6.60;99.90;;;;;;5071149;28;20051;-78
2021/12/19 05:27:49;;;;;;;0.47;0.30;;;6.60;99.90;;;;;;5054520;28;20047;-78
2021/12/19 05:30:15;;;;;;;1.02;0.40;;;6.50;99.90;;;;;;5072855;28;20075;-78
2021/12/19 05:32:43;;;;;;;0.77;0.40;;;6.50;99.90;;;;;;5054847;28;20036;-78
2021/12/19 05:35:11;;;;;;;1.27;0.40;;;6.50;99.90;;;;;;5071356;28;20036;-78
2021/12/19 05:45:50;;;;;;;1.10;0.55;;;6.60;99.90;;;;;;5072150;28;20063;-78
2021/12/19 05:48:16;;;;;;;3.80;0.47;;;6.50;99.90;;;;;;5054480;28;20036;-78
2021/12/19 05:50:42;;;;;;;0.50;0.30;;;6.60;99.90;;;;;;5070998;28;20032;-78
2021/12/19 05:53:09;;;;;;;0.90;0.40;;;6.60;99.90;;;;;;5071487;28;20079;-79
2021/12/19 05:55:35;;;;;;;0.70;0.50;;;6.60;99.90;;;;;;5071642;28;20086;-80
2021/12/19 05:58:01;;;;;;;0.40;0.30;;;6.60;99.90;;;;;;5055381;28;20041;-79
2021/12/19 06:00:27;;;;;;;1.25;0.50;;;6.60;99.90;;;;;;5070806;28;20062;-79
2021/12/19 06:02:52;;;;;;;1.00;0.50;;;6.60;99.90;;;;;;5071685;28;20119;-80
2021/12/19 06:05:18;;;;;;;1.50;0.50;;;6.60;99.90;;;;;;5071994;28;20689;-80
2021/12/19 06:07:43;;;;;;;1.58;0.60;;;6.60;99.90;;;;;;5071550;28;20123;-80
2021/12/19 06:10:10;;;;;;;1.38;0.82;;;6.70;99.90;;;;;;5072108;28;20040;-80
2021/12/19 06:12:37;;;;;;;0.70;0.57;;;6.60;99.90;;;;;;5054993;28;20036;-80
2021/12/19 06:15:08;;;;;;;1.33;0.77;;;6.60;99.90;;;;;;5071646;28;20046;-80
2021/12/19 06:17:35;;;;;;;2.58;1.50;;;6.60;99.90;;;;;;5054858;28;20033;-80
2021/12/19 06:20:01;;;;;;;5.47;1.20;;;6.70;99.90;;;;;;5071726;28;20052;-80
2021/12/19 06:22:26;;;;;;;5.43;1.58;;;6.60;99.90;;;;;;5055015;28;20040;-79
2021/12/19 06:24:52;;;;;;;4.55;1.67;;;6.60;99.90;;;;;;5071562;28;20045;-80
2021/12/19 06:27:18;;;;;;;2.90;1.63;;;6.70;99.90;;;;;;5054769;28;20123;-79
2021/12/19 06:29:43;;;;;;;4.75;1.98;;;6.70;99.90;;;;;;5071635;28;20468;-79
2021/12/19 06:32:09;;;;;;;7.68;2.55;;;6.70;99.90;;;;;;5071597;28;20041;-79
2021/12/19 06:34:34;;;;;;;3.80;1.90;;;6.70;99.90;;;;;;5072054;28;20036;-79
2021/12/19 06:37:00;;;;;;;12.15;2.13;;;6.70;99.90;;;;;;5071887;28;20447;-79
2021/12/19 06:39:26;;;;;;;5.47;2.10;;;6.80;99.90;;;;;;5072205;28;20040;-79
2021/12/19 06:41:51;;;;;;;8.20;2.20;;;6.80;99.90;;;;;;5071765;28;20044;-80
2021/12/19 06:44:17;;;;;;;5.07;1.75;;;6.80;99.90;;;;;;5055445;28;20045;-80
2021/12/19 06:46:42;;;;;;;6.93;1.95;;;6.80;99.90;;;;;;5054508;28;20404;-80
2021/12/19 06:49:08;;;;;;;6.85;2.17;;;6.80;99.90;;;;;;5071890;28;20125;-80
2021/12/19 06:51:35;;;;;;;3.22;1.60;;;6.80;99.90;;;;;;5071395;28;20044;-79
2021/12/19 06:54:02;;;;;;;4.80;2.20;;;6.80;99.90;;;;;;5071641;28;20036;-79
2021/12/19 06:56:28;;;;;;;7.72;2.60;;;6.80;99.90;;;;;;5071086;28;20040;-79
2021/12/19 06:58:53;;;;;;;9.48;2.67;;;6.80;99.90;;;;;;5071777;28;20032;-79
2021/12/19 07:01:19;;;;;;;3.75;2.38;;;6.70;99.90;;;;;;5071684;28;20541;-79
2021/12/19 07:03:44;;;;;;;5.85;3.33;;;6.80;99.90;;;;;;5072082;28;20041;-79
2021/12/19 07:06:10;;;;;;;6.45;2.80;;;6.80;99.90;;;;;;5072757;28;20044;-79
2021/12/19 07:08:36;;;;;;;6.22;2.83;;;6.90;99.90;;;;;;5072422;28;20045;-80
2021/12/19 07:11:02;;;;;;;6.85;2.90;;;6.80;99.90;;;;;;5071900;28;20048;-80
2021/12/19 07:13:27;;;;;;;9.55;2.88;;;6.80;99.90;;;;;;5075197;28;20469;-80
2021/12/19 07:15:55;;;;;;;10.45;3.47;;;6.80;99.90;;;;;;5074815;28;20071;-80
2021/12/19 07:18:21;;;;;;;8.52;3.65;;;6.80;99.90;;;;;;5075162;28;20072;-80
2021/12/19 07:20:47;;;;;;;9.90;3.97;;;6.80;99.90;;;;;;5075481;28;20033;-80
2021/12/19 07:23:15;;;;;;;12.15;4.07;;;6.90;99.90;;;;;;5075293;28;20083;-80
2021/12/19 07:25:41;;;;;;;10.07;3.55;;;6.90;99.90;;;;;;5075269;28;20047;-80
2021/12/19 07:28:08;;;;;;;9.32;3.20;;;6.90;99.90;;;;;;5075204;28;20492;-80
2021/12/19 07:30:36;;;;;;;11.18;2.95;;;6.90;99.90;;;;;;5075465;28;20553;-80
2021/12/19 07:33:03;;;;;;;8.88;3.30;;;6.90;99.90;;;;;;5075419;28;20040;-80
2021/12/19 07:35:31;;;;;;;10.02;2.40;;;6.90;99.90;;;;;;5074867;28;20037;-80
2021/12/19 07:37:56;;;;;;;10.52;2.42;;;6.90;99.90;;;;;;5074928;28;20055;-80
2021/12/19 07:40:24;;;;;;;11.07;3.30;;;6.90;99.90;;;;;;5075292;28;20037;-80
2021/12/19 07:42:51;;;;;;;9.23;2.55;;;6.90;99.90;;;;;;5074716;28;20044;-80
2021/12/19 07:45:17;;;;;;;7.03;2.38;;;6.90;99.90;;;;;;5058680;28;20045;-80
2021/12/19 07:47:44;;;;;;;15.48;3.78;;;6.90;99.90;;;;;;5075929;28;20099;-80
2021/12/19 07:50:12;;;;;;;14.00;3.08;;;6.90;99.90;;;;;;5074404;28;20040;-80
2021/12/19 07:52:38;;;;;;;8.07;2.90;;;6.90;99.90;;;;;;5057699;28;20036;-80
2021/12/19 07:55:04;;;;;;;8.80;3.42;;;6.90;99.90;;;;;;5074461;28;20366;-80
2021/12/19 07:57:30;;;;;;;12.50;3.47;;;6.90;99.90;;;;;;5074144;28;20071;-80
2021/12/19 07:59:56;;;;;;;12.98;3.17;;;6.90;99.90;;;;;;5074650;28;20036;-80
2021/12/19 08:02:21;;;;;;;12.65;3.00;;;6.90;99.90;;;;;;5057435;28;20041;-79
2021/12/19 08:04:47;;;;;;;11.07;3.30;;;6.90;99.90;;;;;;5074311;28;20412;-79
2021/12/19 08:07:13;;;;;;;12.32;3.97;;;6.90;99.90;;;;;;5074235;28;20101;-79
2021/12/19 08:09:57;;;;;;;11.70;3.92;;;7.00;99.90;;;;;;5074937;28;20497;-79
2021/12/19 08:12:22;;;;;;;17.48;4.70;;;7.00;99.90;;;;;;5058353;28;20040;-79
2021/12/19 08:14:48;;;;;;;8.13;3.08;;;7.00;99.90;;;;;;5058305;28;20074;-79
2021/12/19 08:17:13;;;;;;;13.10;4.22;;;7.00;99.90;;;;;;5075214;28;20044;-79
2021/12/19 08:19:39;;;;;;;11.88;4.30;;;6.90;99.90;;;;;;5058606;28;20093;-79
2021/12/19 08:22:04;;;;;;;11.43;3.75;;;7.00;99.90;;;;;;5058706;28;20123;-79
2021/12/19 08:24:30;;;;;;;11.88;3.78;;;7.00;99.90;;;;;;5073979;28;20123;-80
2021/12/19 08:26:55;;;;;;;17.25;3.75;;;7.00;99.90;;;;;;5075102;28;20037;-80
2021/12/19 08:29:21;;;;;;;9.32;3.33;;;7.00;99.90;;;;;;5074551;28;20067;-79
2021/12/19 08:31:47;;;;;;;10.40;2.58;;;7.00;99.90;;;;;;5076044;28;20044;-80
2021/12/19 08:34:12;;;;;;;9.07;2.85;;;7.00;99.90;;;;;;5057754;28;20086;-80
2021/12/19 08:36:38;;;;;;;11.38;2.72;;;7.00;99.90;;;;;;5058021;28;20589;-80
2021/12/19 08:39:05;;;;;;;10.50;2.13;;;7.00;99.90;;;;;;5057731;28;20476;-80
2021/12/19 08:41:30;;;;;;;10.20;2.63;;;7.00;99.90;;;;;;5074283;28;20051;-79
2021/12/19 08:43:56;;;;;;;8.50;3.10;;;7.00;99.90;;;;;;5075878;28;20044;-81
2021/12/19 08:46:22;;;;;;;12.32;4.10;;;7.00;99.90;;;;;;5074986;28;20106;-82
2021/12/19 08:48:47;;;;;;;15.13;2.88;;;7.00;99.90;;;;;;5059420;28;20074;-82
2021/12/19 08:51:13;;;;;;;12.90;3.85;;;7.00;99.90;;;;;;5074872;28;20123;-82
2021/12/19 08:53:38;;;;;;;10.02;2.40;;;7.00;99.90;;;;;;5077195;28;20099;-82
2021/12/19 08:56:04;;;;;;;9.18;3.05;;;7.10;99.90;;;;;;5075585;28;20045;-83
2021/12/19 08:58:30;;;;;;;12.93;3.67;;;7.00;99.90;;;;;;5076004;28;20101;-82
2021/12/19 09:01:01;;;;;;;5.18;2.70;;;7.00;99.90;;;;;;5059604;28;20025;-82
2021/12/19 09:03:30;;;;;;;10.45;3.22;;;7.10;99.90;;;;;;5059290;28;20042;-82
2021/12/19 09:05:56;;;;;;;14.25;4.70;;;7.00;99.90;;;;;;5075578;28;20079;-82
2021/12/19 09:08:22;;;;;;;9.80;2.53;;;7.00;99.90;;;;;;5058238;28;20071;-82
2021/12/19 09:10:48;;;;;;;14.30;3.78;;;7.10;99.90;;;;;;5075072;28;20068;-82
2021/12/19 09:13:13;;;;;;;12.73;3.13;;;7.10;99.90;;;;;;5074944;28;20040;-83
2021/12/19 09:15:39;;;;;;;8.07;3.03;;;7.10;99.90;;;;;;5057995;28;20040;-83
2021/12/19 09:18:04;;;;;;;11.07;2.92;;;7.10;99.90;;;;;;5057288;28;20037;-84
2021/12/19 09:20:30;;;;;;;13.90;3.50;;;7.10;99.90;;;;;;5055413;28;20481;-84
2021/12/19 09:22:56;;;;;;;9.13;3.72;;;7.10;99.90;;;;;;5054743;28;20040;-84
2021/12/19 09:25:21;;;;;;;15.00;3.05;;;7.10;99.90;;;;;;5054586;28;20036;-85
2021/12/19 09:27:48;;;;;;;12.07;3.53;;;7.10;99.90;;;;;;5071621;28;20459;-85
2021/12/19 09:30:14;;;;;;;11.73;3.20;;;7.20;99.90;;;;;;5059640;28;20041;-84
2021/12/19 09:32:40;;;;;;;12.48;2.78;;;7.20;99.90;;;;;;5062052;28;20091;-84
2021/12/19 09:35:07;;;;;;;11.25;3.50;;;7.20;99.90;;;;;;5074809;28;20512;-85
2021/12/19 09:37:35;;;;;;;10.73;3.50;;;7.20;99.90;;;;;;5071346;28;20123;-84
2021/12/19 09:40:04;;;;;;;10.57;3.05;;;7.20;99.90;;;;;;5071342;28;20037;-84
2021/12/19 09:42:34;;;;;;;12.05;2.92;;;7.20;99.90;;;;;;5075985;28;20488;-84
2021/12/19 09:45:02;;;;;;;9.73;2.90;;;7.30;99.90;;;;;;5078093;28;20044;-82
2021/12/19 09:47:28;;;;;;;8.05;2.72;;;7.30;99.90;;;;;;5080752;28;20408;-82
2021/12/19 09:49:54;;;;;;;8.98;2.35;;;7.30;99.90;;;;;;5077448;28;20047;-83
2021/12/19 09:52:20;;;;;;;7.55;2.47;;;7.30;99.90;;;;;;5075131;28;20048;-82
2021/12/19 09:54:46;;;;;;;8.68;2.30;;;7.30;99.90;;;;;;5057461;28;20066;-82
2021/12/19 09:57:11;;;;;;;8.60;2.20;;;7.30;99.90;;;;;;5073209;28;20079;-83
2021/12/19 09:59:38;;;;;;;11.48;2.75;;;7.30;99.90;;;;;;5071127;28;20485;-83
2021/12/19 10:02:04;;;;;;;9.88;2.30;;;7.40;99.90;;;;;;5054830;28;20040;-82
2021/12/19 10:04:41;;;;;;;12.05;2.10;;;7.30;99.90;;;;;;5055994;28;20044;-83
2021/12/19 10:07:08;;;;;;;10.43;2.83;;;7.40;99.90;;;;;;5057756;28;20045;-83
2021/12/19 10:09:36;;;;;;;4.80;1.83;;;7.40;99.90;;;;;;5058119;28;20048;-82
2021/12/19 10:12:36;;;;;;;8.73;1.95;;;7.40;99.90;;;;;;5073146;28;20524;-83
2021/12/19 10:15:07;;;;;;;10.45;1.85;;;7.40;99.90;;;;;;5054181;28;20568;-83
2021/12/19 10:17:33;;;;;;;13.02;2.00;;;7.40;99.90;;;;;;5054264;28;20039;-83
2021/12/19 10:20:02;;;;;;;5.75;2.13;;;7.40;99.90;;;;;;5053929;28;20040;-83
2021/12/19 10:22:38;;;;;;;6.30;1.98;;;7.40;99.90;;;;;;5053820;28;20036;-83
2021/12/19 10:25:16;;;;;;;7.03;2.08;;;7.50;99.90;;;;;;5053638;28;20041;-82
2021/12/19 10:27:44;;;;;;;11.63;2.42;;;7.50;99.90;;;;;;5055786;28;20049;-81
2021/12/19 10:30:31;;;;;;;10.98;2.97;;;7.50;99.90;;;;;;5058945;28;20070;-81
2021/12/19 10:33:01;;;;;;;7.90;2.75;;;7.50;99.90;;;;;;5060334;28;20100;-81
2021/12/19 10:35:30;;;;;;;7.43;2.03;;;7.50;99.90;;;;;;5055726;28;20037;-82
2021/12/19 10:37:56;;;;;;;7.57;2.17;;;7.50;99.90;;;;;;5071573;28;20075;-83
2021/12/19 10:40:23;;;;;;;3.22;1.77;;;7.50;99.90;;;;;;5057095;28;20411;-82
2021/12/19 10:42:59;;;;;;;5.68;2.30;;;7.50;99.90;;;;;;5075336;28;20641;-82
2021/12/19 10:45:33;;;;;;;10.10;2.40;;;7.50;99.90;;;;;;5075633;28;20055;-82
2021/12/19 10:48:08;;;;;;;5.72;1.65;;;7.50;99.90;;;;;;5079086;28;20052;-81
2021/12/19 10:50:51;;;;;;;5.75;2.65;;;7.50;99.90;;;;;;5068074;28;20060;-81
2021/12/19 10:53:19;;;;;;;8.55;2.63;;;7.60;99.90;;;;;;5064142;28;20063;-82
2021/12/19 10:55:48;;;;;;;8.70;2.78;;;7.60;99.90;;;;;;5080858;28;20036;-81
2021/12/19 10:58:31;;;;;;;10.57;3.33;;;7.60;99.90;;;;;;5082700;28;20072;-81
2021/12/19 11:01:31;;;;;;;8.05;3.28;;;7.60;99.90;;;;;;5087982;28;20100;-83
2021/12/19 11:04:14;;;;;;;9.90;2.70;;;7.60;99.90;;;;;;5044348;28;20028;-82
2021/12/19 11:06:48;;;;;;;7.38;2.85;;;7.60;99.90;;;;;;5070031;28;20040;-81
2021/12/19 11:09:16;;;;;;;10.68;4.05;;;7.70;99.90;;;;;;5081036;28;20075;-80
2021/12/19 11:11:49;;;;;;;8.18;2.83;;;7.70;99.90;;;;;;5079174;28;20043;-84
2021/12/19 11:14:16;;;;;;;9.82;2.72;;;7.70;99.90;;;;;;5057478;28;20040;-83
2021/12/19 11:16:43;;;;;;;6.93;2.17;;;7.70;99.90;;;;;;5073712;28;20084;-83
2021/12/19 11:19:09;;;;;;;16.73;4.10;;;7.70;99.90;;;;;;5074125;28;20051;-84
2021/12/19 11:21:36;;;;;;;12.77;2.40;;;7.70;99.90;;;;;;5057315;28;20504;-84
2021/12/19 11:24:08;;;;;;;14.63;5.63;;;7.70;99.90;;;;;;5074032;28;20055;-84
2021/12/19 11:26:37;;;;;;;7.93;2.05;;;7.70;99.90;;;;;;5056650;28;20075;-84
2021/12/19 11:29:05;;;;;;;8.05;1.63;;;7.70;99.90;;;;;;5056903;28;20049;-83
2021/12/19 11:31:32;;;;;;;9.07;1.95;;;7.80;99.90;;;;;;5056771;28;20048;-84
2021/12/19 11:34:14;;;;;;;9.07;2.25;;;7.80;99.90;;;;;;5074677;28;20507;-84
2021/12/19 11:36:44;;;;;;;7.85;3.80;;;7.70;99.90;;;;;;5056645;28;20119;-84
2021/12/19 11:39:11;;;;;;;7.47;2.50;;;7.80;99.90;;;;;;5073557;28;20058;-84
2021/12/19 11:41:39;;;;;;;7.20;2.22;;;7.80;99.90;;;;;;5073347;28;20119;-84
2021/12/19 11:44:07;;;;;;;3.78;1.75;;;7.80;99.90;;;;;;5074848;28;20048;-85
2021/12/19 11:46:54;;;;;;;6.40;2.67;;;7.80;99.90;;;;;;5075365;28;20131;-81
2021/12/19 11:49:24;;;;;;;9.30;2.97;;;7.80;99.90;;;;;;5079602;28;20044;-82
2021/12/19 11:52:26;;;;;;;5.50;2.13;;;7.80;99.90;;;;;;5083087;28;20048;-82
2021/12/19 11:55:14;;;;;;;7.13;2.20;;;7.80;99.90;;;;;;5083685;28;20036;-82
2021/12/19 11:58:00;;;;;;;9.75;2.20;;;7.90;99.90;;;;;;5078275;28;20045;-82
2021/12/19 12:00:27;;;;;;;11.02;2.25;;;7.80;99.90;;;;;;5025644;28;20051;-82
2021/12/19 12:03:11;;;;;;;4.95;2.08;;;7.90;99.90;;;;;;5085957;28;20135;-81
2021/12/19 12:05:41;;;;;;;9.20;1.95;;;7.90;99.90;;;;;;5066933;28;20496;-81
2021/12/19 12:08:07;;;;;;;8.70;2.00;;;7.80;99.90;;;;;;5082184;28;20063;-81
2021/12/19 12:10:51;;;;;;;12.93;2.53;;;7.80;99.90;;;;;;5083370;28;20048;-82
2021/12/19 12:13:28;;;;;;;12.23;2.40;;;7.90;99.90;;;;;;5064677;28;20040;-82
2021/12/19 12:16:05;;;;;;;8.68;2.15;;;7.80;99.90;;;;;;5085396;28;20226;-82
2021/12/19 12:18:36;;;;;;;3.50;1.45;;;7.70;99.90;;;;;;5080408;28;20041;-81
2021/12/19 12:21:26;;;;;;;7.03;1.63;;;7.80;99.90;;;;;;5080739;28;20040;-81
2021/12/19 12:23:58;;;;;;;5.88;1.67;;;7.80;99.90;;;;;;5062340;28;20096;-81
2021/12/19 12:26:34;;;;;;;8.57;2.33;;;7.80;99.90;;;;;;5080162;28;20036;-81
2021/12/19 12:29:01;;;;;;;5.57;2.10;;;7.70;99.90;;;;;;5081318;28;20037;-82
2021/12/19 12:31:27;;;;;;;8.27;1.98;;;7.80;99.90;;;;;;5074005;28;20493;-82
2021/12/19 12:33:54;;;;;;;9.07;2.03;;;7.80;99.90;;;;;;5074892;28;20054;-82
2021/12/19 12:36:21;;;;;;;9.70;2.15;;;7.80;99.90;;;;;;5073347;28;20041;-83
2021/12/19 12:38:50;;;;;;;11.27;2.10;;;7.90;99.90;;;;;;5074969;28;20040;-82
2021/12/19 12:43:53;;;;;;;13.05;3.13;;;7.90;99.90;;;;;;5085930;28;20425;-81
2021/12/19 12:46:23;;;;;;;18.02;3.47;;;7.90;99.90;;;;;;5061805;28;20036;-82
2021/12/19 12:48:55;;;;;;;6.13;2.22;;;7.90;99.90;;;;;;5077442;28;20043;-82
2021/12/19 12:51:31;;;;;;;11.45;2.03;;;7.90;99.90;;;;;;5077957;28;20039;-82
2021/12/19 12:54:05;;;;;;;9.85;2.15;;;7.90;99.90;;;;;;5059764;28;20044;-76
2021/12/19 12:56:35;;;;;;;7.45;2.15;;;7.90;99.90;;;;;;5062307;28;20097;-82
2021/12/19 12:59:03;;;;;;;7.80;2.53;;;7.90;99.90;;;;;;5095296;28;20103;-81
2021/12/19 13:01:36;;;;;;;11.32;3.30;;;7.90;99.90;;;;;;5099328;28;20093;-82
2021/12/19 13:04:12;;;;;;;14.48;3.17;;;7.90;99.90;;;;;;5096151;28;20047;-82
2021/12/19 13:06:41;;;;;;;9.73;2.60;;;7.90;99.90;;;;;;5078791;28;20075;-82
2021/12/19 13:09:16;;;;;;;11.63;2.65;;;8.00;99.90;;;;;;5096180;28;20072;-82
2021/12/19 13:11:43;;;;;;;10.93;1.95;;;7.90;99.90;;;;;;5095778;28;20115;-83
2021/12/19 13:14:11;;;;;;;8.38;2.10;;;7.90;99.90;;;;;;5096852;28;20407;-83
2021/12/19 13:16:58;;;;;;;6.60;2.20;;;7.90;99.90;;;;;;5096573;28;20486;-82
2021/12/19 13:19:44;;;;;;;15.00;4.03;;;7.90;99.90;;;;;;5095524;28;20040;-83
2021/12/19 13:22:17;;;;;;;15.27;3.70;;;7.90;99.90;;;;;;5094438;28;20062;-82
2021/12/19 13:24:43;;;;;;;13.85;2.50;;;7.90;99.90;;;;;;5078269;28;20044;-83
2021/12/19 13:27:16;;;;;;;8.73;2.58;;;7.90;99.90;;;;;;5094881;28;20440;-82
2021/12/19 13:29:57;;;;;;;16.20;3.33;;;7.90;99.90;;;;;;4997060;28;20414;-82
2021/12/19 13:32:28;;;;;;;4.72;2.00;;;7.90;99.90;;;;;;5028385;28;20132;-82
2021/12/19 13:34:55;;;;;;;7.15;1.65;;;7.80;99.90;;;;;;5054327;28;20060;-82
2021/12/19 13:37:21;;;;;;;7.95;2.22;;;7.90;99.90;;;;;;5039500;28;20084;-81
2021/12/19 13:40:10;;;;;;;14.98;2.22;;;7.90;99.90;;;;;;5010811;28;20075;-81
2021/12/19 13:42:38;;;;;;;9.13;1.95;;;7.80;99.90;;;;;;5051352;28;20049;-83
2021/12/19 13:45:30;;;;;;;7.93;2.45;;;7.80;99.90;;;;;;5038792;28;20532;-83
2021/12/19 13:47:59;;;;;;;13.63;3.20;;;7.80;99.90;;;;;;5042992;28;20042;-82
2021/12/19 13:50:26;;;;;;;13.98;1.90;;;7.80;99.90;;;;;;5040636;28;20526;-82
2021/12/19 13:52:52;;;;;;;14.30;2.42;;;7.80;99.90;;;;;;5003806;28;20053;-82
2021/12/19 13:55:18;;;;;;;14.05;4.07;;;7.80;99.90;;;;;;5031436;28;20072;-83
2021/12/19 13:57:45;;;;;;;6.93;2.25;;;7.80;99.90;;;;;;5047868;28;20076;-82
2021/12/19 14:00:29;;;;;;;13.00;2.50;;;7.80;99.90;;;;;;5042992;28;20044;-83
2021/12/19 14:02:59;;;;;;;10.20;2.03;;;7.80;99.90;;;;;;5042692;28;20722;-82
2021/12/19 14:05:40;;;;;;;12.40;1.85;;;7.80;99.90;;;;;;5064893;28;20053;-82
2021/12/19 14:08:36;;;;;;;11.32;3.40;;;7.80;99.90;;;;;;5057757;28;20044;-79